Tanja Jacob — A8YR7 — position and weather

sailwx.info

Track history (hours):
 
Tides and Currents Weather Stations Pressure Air Temp Water Temp Dewpoint Dewpoint Depression Visibility Wind Speed Wind Dir Waves Ship Positions

Tanja Jacob

Last reported at 2015-Jan-25 14:29 UTC. Time now 2015-Jan-27 01:08 UTC.
Position N 29°16' W 094°28'.

Length 227 m; draft 8.2 m.

Type: Ship. MMSI: 636092217.

Date/timePositionNaut miles runAvg speedWind from/ knotsBaromVisibWave heightAir tempDewpointWater temp
2015-Jan-25 14:29N 29°16' W 094°28'5 5.4
2015-Jan-25 13:33N 29°11' W 094°26'11 9.9
2015-Jan-25 12:28N 29°06' W 094°16'1111.4
2015-Jan-25 11:32N 28°60' W 094°06'219 7.2
2015-Jan-24 05:09N 29°47' W 090°01'9 8.9
2015-Jan-24 04:08N 29°55' W 089°57'6 9.6
2015-Jan-24 03:34N 29°56' W 090°04'4 0.1
2015-Jan-22 22:33N 29°57' W 090°08'6 6.2
2015-Jan-22 21:33N 29°57' W 090°01'  
Track history (hours):
 
Tides and Currents Weather Stations Pressure Air Temp Water Temp Dewpoint Dewpoint Depression Visibility Wind Speed Wind Dir Waves Ship Positions

Tanja Jacob

Last reported at 2015-Jan-25 14:29 UTC. Time now 2015-Jan-27 01:08 UTC.
Position N 29°16' W 094°28'.

Length 227 m; draft 8.2 m.

Type: Ship. MMSI: 636092217.

Date/timePositionNaut miles runAvg speedWind from/ knotsBaromVisibWave heightAir tempDewpointWater temp
2015-Jan-25 14:29N 29°16' W 094°28'5 5.4
2015-Jan-25 13:33N 29°11' W 094°26'11 9.9
2015-Jan-25 12:28N 29°06' W 094°16'1111.4
2015-Jan-25 11:32N 28°60' W 094°06'219 7.2
2015-Jan-24 05:09N 29°47' W 090°01'9 8.9
2015-Jan-24 04:08N 29°55' W 089°57'6 9.6
2015-Jan-24 03:34N 29°56' W 090°04'4 0.1
2015-Jan-22 22:33N 29°57' W 090°08'6 6.2
2015-Jan-22 21:33N 29°57' W 090°01'  

Dump ship's entire track history